Nearby METAR Reports

 

KMTN - Baltimore/Martin, Maryland, USA
Distance from station: SSE 8mi, 13km
Updated: Mon, 01-Sep-2014 11:48pm EDT
Clear
Clear
 Wind from ESE
Wind: ESE 5 mph , 7 km/h
Temperature: 77°F , 25°C
Dew Point: 77°F , 25°C
Humidity: 100%
Barometer: 29.97 inHg , 1014.9 hPa
Clouds: Clear
Visibility: 10 miles , 16 km
2014/09/02 03:48 KMTN 020348Z AUTO 11004KT 10SM CLR 25/25 A2997 RMK AO2
KDMH - Baltimore/Dwntwn, Maryland, USA
Distance from station: SW 12mi, 19km
Updated: Mon, 01-Sep-2014 11:54pm EDT

 
Temperature: 82°F , 28°C
Heat Index: 86°F , 30°C
Dew Point: 72°F , 22°C
Humidity: 70%
Barometer: 29.96 inHg , 1014.6 hPa
2014/09/02 03:54 KDMH 020354Z AUTO 28/22 A2996 RMK AO1 SLP144 T02780222
 
KBWI - Balto/Wash Intl, Maryland, USA
Distance from station: SSW 20mi, 33km
Updated: Mon, 01-Sep-2014 11:54pm EDT
Mostly cloudy
Mostly cloudy
 Wind from calm
Wind: Calm
Temperature: 75°F , 24°C
Dew Point: 73°F , 23°C
Humidity: 94%
Barometer: 29.96 inHg , 1014.6 hPa
Clouds: Mostly cloudy
Visibility: 10 miles , 16 km
Cloud details: Partly cloudy 6000 ft
Mostly cloudy 8500 ft
2014/09/02 03:54 KBWI 020354Z 00000KT 10SM SCT060 BKN085 24/23 A2996 RMK AO2 SLP143 T02390228
KDMW - Carroll Cnty, Maryland, USA
Distance from station: WNW 30mi, 48km
Updated: Mon, 01-Sep-2014 11:45pm EDT
Partly cloudy
Partly cloudy
 Wind from SSW
Wind: SSW 5 mph , 7 km/h
Clouds: Partly cloudy
Visibility: 10 miles , 16 km
Cloud details: Partly cloudy 6000 ft
2014/09/02 03:45 KDMW 020345Z AUTO 20004KT 10SM SCT060 120 26/23 A2999 RMK AO2
 
KNAK - Annapolis/Naval, Maryland, USA
Distance from station: S 30mi, 48km
Updated: Mon, 01-Sep-2014 11:54pm EDT
Haze, Few clouds
Haze, Few clouds
 Wind from calm
Wind: Calm
Temperature: 81°F , 27°C
Heat Index: 86°F , 30°C
Dew Point: 73°F , 23°C
Humidity: 79%
Barometer: 29.96 inHg , 1014.6 hPa
Summary: Haze
Clouds: Few Clouds
Visibility: 6 miles , 10 km
Cloud details: Few Clouds 9000 ft
2014/09/02 03:54 KNAK 020354Z AUTO 00000KT 6SM HZ FEW090 27/23 A2996 RMK AO2 SLP146 T02670233 $
KW29 - Stevensville, Maryland, USA
Distance from station: SSE 31mi, 50km
Updated: Mon, 01-Sep-2014 11:48pm EDT

 Wind from SSE
Wind: SSE 5 mph , 7 km/h
Temperature: 79°F , 26°C
Dew Point: 77°F , 25°C
Humidity: 94%
Barometer: 29.97 inHg , 1014.9 hPa
Visibility: 10 miles , 16 km
2014/09/02 03:48 KW29 020348Z AUTO 15004KT 10SM 26/25 A2997 RMK AO1
 
KCGS - College Park, Maryland, USA
Distance from station: SW 38mi, 61km
Updated: Mon, 01-Sep-2014 11:45pm EDT
Mostly cloudy
Mostly cloudy
 Wind from calm
Wind: Calm
Temperature: 77°F , 25°C
Dew Point: 75°F , 24°C
Humidity: 94%
Barometer: 29.96 inHg , 1014.6 hPa
Clouds: Mostly cloudy
Visibility: 10 miles , 16 km
Cloud details: Mostly cloudy 7000 ft
Mostly cloudy 10000 ft
Mostly cloudy 11000 ft
2014/09/02 03:45 KCGS 020345Z AUTO 00000KT 10SM BKN070 BKN100 BKN110 25/24 A2996 RMK AO1
KGAI - Gaithersburg, Maryland, USA
Distance from station: WSW 40mi, 65km
Updated: Mon, 01-Sep-2014 11:55pm EDT
Partly cloudy
Partly cloudy
 Wind from SSE
Wind: SSE 5 mph , 7 km/h
Temperature: 75°F , 24°C
Dew Point: 72°F , 22°C
Humidity: 89%
Barometer: 30.01 inHg , 1016.3 hPa
Clouds: Partly cloudy
Visibility: 10 miles , 16 km
Cloud details: Few Clouds 4900 ft
Partly cloudy 6000 ft
Partly cloudy 11000 ft
2014/09/02 03:55 KGAI 020355Z AUTO 15004KT 10SM FEW049 SCT060 SCT110 24/22 A3001 RMK AO1 P0002
 
KTHV - York, Pennsylvania, USA
Distance from station: NNW 40mi, 65km
Updated: Mon, 01-Sep-2014 11:53pm EDT
Few Clouds
Few Clouds
 Wind from calm
Wind: Calm
Temperature: 73°F , 23°C
Dew Point: 72°F , 22°C
Humidity: 94%
Barometer: 29.97 inHg , 1014.9 hPa
Clouds: Few Clouds
Visibility: 10 miles , 16 km
Cloud details: Few Clouds 6000 ft
2014/09/02 03:53 KTHV 020353Z AUTO 00000KT 10SM FEW060 23/22 A2997 RMK AO2 SLP148 T02280217
KFDK - Frederick, Maryland, USA
Distance from station: W 47mi, 75km
Updated: Mon, 01-Sep-2014 11:45pm EDT
Partly cloudy
Partly cloudy
 Wind from calm
Wind: Calm
Barometer: 30.00 inHg , 1015.9 hPa
Clouds: Partly cloudy
Visibility: 10 miles , 16 km
Cloud details: Partly cloudy 12000 ft
2014/09/02 03:45 KFDK 020345Z AUTO 00000KT 10SM SCT120 A3000 RMK AO2 LTG DSNT E P0002
 
KESN - Easton/Newnam, Maryland, USA
Distance from station: SSE 48mi, 78km
Updated: Tue, 02-Sep-2014 12:00am EDT
Clear
Clear
 Wind from calm
Wind: Calm
Temperature: 79°F , 26°C
Dew Point: 77°F , 25°C
Humidity: 94%
Barometer: 30.01 inHg , 1016.3 hPa
Clouds: Clear
Visibility: 10 miles , 16 km
2014/09/02 04:00 KESN 020400Z AUTO 00000KT 10SM CLR 26/25 A3001 RMK AO2 T02630249
KDCA - Washington/Natl, Washington D.c., USA
Distance from station: SW 49mi, 79km
Updated: Mon, 01-Sep-2014 11:52pm EDT
Mostly cloudy
Mostly cloudy
 Wind from SSW
Wind: SSW 8 mph , 13 km/h
Temperature: 81°F , 27°C
Heat Index: 86°F , 30°C
Dew Point: 73°F , 23°C
Humidity: 79%
Barometer: 29.97 inHg , 1014.9 hPa
Clouds: Mostly cloudy
Visibility: 10 miles , 16 km
Cloud details: Few Clouds 6000 ft
Partly cloudy 10000 ft
Mostly cloudy 25000 ft
2014/09/02 03:52 KDCA 020352Z 20007KT 10SM FEW060 SCT100 BKN250 27/23 A2997 RMK AO2 SLP147 T02720233
 
KLNS - Lancaster, Pennsylvania, USA
Distance from station: N 49mi, 79km
Updated: Tue, 02-Sep-2014 12:07am EDT
Mist, Partly cloudy
Mist, Partly cloudy
 Wind from calm
Wind: Calm
Temperature: 73°F , 23°C
Dew Point: 72°F , 22°C
Humidity: 94%
Barometer: 29.97 inHg , 1014.9 hPa
Summary: Mist
Clouds: Partly cloudy
Visibility: 1 3/4 miles , 5 km
Cloud details: Partly cloudy 8000 ft
Partly cloudy 9000 ft
2014/09/02 04:07 KLNS 020407Z AUTO 00000KT 1 3/4SM BR SCT080 SCT090 23/22 A2997 RMK AO2 T02280222 $
KILG - Wilmington, Delaware, USA
Distance from station: ENE 50mi, 81km
Updated: Mon, 01-Sep-2014 11:51pm EDT
Clear
Clear
 Wind from SSW
Wind: SSW 3 mph , 6 km/h
Temperature: 79°F , 26°C
Dew Point: 75°F , 24°C
Humidity: 89%
Barometer: 29.97 inHg , 1014.9 hPa
Clouds: Clear
Visibility: 10 miles , 16 km
2014/09/02 03:51 KILG 020351Z AUTO 20003KT 10SM CLR 26/24 A2997 RMK AO2 SLP147 T02560244 TSNO $